sensor_id;sensor_type;location;lat;lon;timestamp;temperature;humidity
69225;DHT22;56333;51.306;17.056;2023-04-24T00:00:36;14.91;71.72
69225;DHT22;56333;51.306;17.056;2023-04-24T00:02:05;14.92;71.55
69225;DHT22;56333;51.306;17.056;2023-04-24T00:03:34;14.90;71.43
69225;DHT22;56333;51.306;17.056;2023-04-24T00:05:03;14.89;71.43
69225;DHT22;56333;51.306;17.056;2023-04-24T00:06:35;14.89;71.35
69225;DHT22;56333;51.306;17.056;2023-04-24T00:08:06;14.89;71.45
69225;DHT22;56333;51.306;17.056;2023-04-24T00:09:35;14.90;71.55
69225;DHT22;56333;51.306;17.056;2023-04-24T00:11:04;14.91;71.63
69225;DHT22;56333;51.306;17.056;2023-04-24T00:12:33;14.93;71.65
69225;DHT22;56333;51.306;17.056;2023-04-24T00:14:02;14.93;71.75
69225;DHT22;56333;51.306;17.056;2023-04-24T00:15:31;14.94;71.70
69225;DHT22;56333;51.306;17.056;2023-04-24T00:17:00;14.94;71.60
69225;DHT22;56333;51.306;17.056;2023-04-24T00:18:29;14.94;71.53
69225;DHT22;56333;51.306;17.056;2023-04-24T00:19:58;14.93;71.38
69225;DHT22;56333;51.306;17.056;2023-04-24T00:21:28;14.91;71.32
69225;DHT22;56333;51.306;17.056;2023-04-24T00:22:57;14.91;71.32
69225;DHT22;56333;51.306;17.056;2023-04-24T00:24:27;14.93;71.32
69225;DHT22;56333;51.306;17.056;2023-04-24T00:25:55;14.91;71.40
69225;DHT22;56333;51.306;17.056;2023-04-24T00:27:24;14.93;71.75
69225;DHT22;56333;51.306;17.056;2023-04-24T00:28:53;14.88;72.10
69225;DHT22;56333;51.306;17.056;2023-04-24T00:30:22;14.85;72.53
69225;DHT22;56333;51.306;17.056;2023-04-24T00:31:51;14.83;72.93
69225;DHT22;56333;51.306;17.056;2023-04-24T00:33:20;14.81;73.28
69225;DHT22;56333;51.306;17.056;2023-04-24T00:34:49;14.79;73.68
69225;DHT22;56333;51.306;17.056;2023-04-24T00:36:18;14.77;73.80
69225;DHT22;56333;51.306;17.056;2023-04-24T00:37:48;14.74;73.90
69225;DHT22;56333;51.306;17.056;2023-04-24T00:39:18;14.69;74.18
69225;DHT22;56333;51.306;17.056;2023-04-24T00:40:47;14.65;74.25
69225;DHT22;56333;51.306;17.056;2023-04-24T00:42:16;14.58;74.25
69225;DHT22;56333;51.306;17.056;2023-04-24T00:43:45;14.53;74.30
69225;DHT22;56333;51.306;17.056;2023-04-24T00:45:15;14.51;74.30
69225;DHT22;56333;51.306;17.056;2023-04-24T00:46:44;14.48;74.35
69225;DHT22;56333;51.306;17.056;2023-04-24T00:48:18;14.43;74.35
69225;DHT22;56333;51.306;17.056;2023-04-24T00:49:48;14.40;74.53
69225;DHT22;56333;51.306;17.056;2023-04-24T00:51:17;14.38;74.82
69225;DHT22;56333;51.306;17.056;2023-04-24T00:52:48;14.37;74.88
69225;DHT22;56333;51.306;17.056;2023-04-24T00:54:17;14.34;75.00
69225;DHT22;56333;51.306;17.056;2023-04-24T00:55:46;14.30;75.10
69225;DHT22;56333;51.306;17.056;2023-04-24T00:57:15;14.30;75.22
69225;DHT22;56333;51.306;17.056;2023-04-24T00:58:44;14.31;75.28
69225;DHT22;56333;51.306;17.056;2023-04-24T01:00:14;14.32;75.40
69225;DHT22;56333;51.306;17.056;2023-04-24T01:01:44;14.32;75.45
69225;DHT22;56333;51.306;17.056;2023-04-24T01:03:13;14.33;75.53
69225;DHT22;56333;51.306;17.056;2023-04-24T01:04:42;14.33;75.45
69225;DHT22;56333;51.306;17.056;2023-04-24T01:06:11;14.36;75.53
69225;DHT22;56333;51.306;17.056;2023-04-24T01:07:41;14.36;75.53
69225;DHT22;56333;51.306;17.056;2023-04-24T01:09:12;14.38;75.55
69225;DHT22;56333;51.306;17.056;2023-04-24T01:10:42;14.36;75.50
69225;DHT22;56333;51.306;17.056;2023-04-24T01:12:13;14.31;75.35
69225;DHT22;56333;51.306;17.056;2023-04-24T01:13:43;14.29;75.45
69225;DHT22;56333;51.306;17.056;2023-04-24T01:15:13;14.27;75.30
69225;DHT22;56333;51.306;17.056;2023-04-24T01:16:42;14.24;75.30
69225;DHT22;56333;51.306;17.056;2023-04-24T01:18:11;14.20;75.35
69225;DHT22;56333;51.306;17.056;2023-04-24T01:19:40;14.18;75.63
69225;DHT22;56333;51.306;17.056;2023-04-24T01:21:10;14.16;75.55
69225;DHT22;56333;51.306;17.056;2023-04-24T01:22:40;14.15;75.60
69225;DHT22;56333;51.306;17.056;2023-04-24T01:24:10;14.13;75.57
69225;DHT22;56333;51.306;17.056;2023-04-24T01:25:39;14.11;75.78
69225;DHT22;56333;51.306;17.056;2023-04-24T01:27:08;14.13;75.85
69225;DHT22;56333;51.306;17.056;2023-04-24T01:28:38;14.12;75.78
69225;DHT22;56333;51.306;17.056;2023-04-24T01:30:09;14.13;75.80
69225;DHT22;56333;51.306;17.056;2023-04-24T01:31:39;14.16;75.85
69225;DHT22;56333;51.306;17.056;2023-04-24T01:33:08;14.16;75.97
69225;DHT22;56333;51.306;17.056;2023-04-24T01:34:38;14.16;75.90
69225;DHT22;56333;51.306;17.056;2023-04-24T01:36:07;14.14;75.95
69225;DHT22;56333;51.306;17.056;2023-04-24T01:37:37;14.14;76.00
69225;DHT22;56333;51.306;17.056;2023-04-24T01:39:06;14.15;76.05
69225;DHT22;56333;51.306;17.056;2023-04-24T01:40:36;14.16;76.05
69225;DHT22;56333;51.306;17.056;2023-04-24T01:42:05;14.16;76.13
69225;DHT22;56333;51.306;17.056;2023-04-24T01:43:35;14.17;76.18
69225;DHT22;56333;51.306;17.056;2023-04-24T01:45:06;14.16;76.18
69225;DHT22;56333;51.306;17.056;2023-04-24T01:46:37;14.19;76.28
69225;DHT22;56333;51.306;17.056;2023-04-24T01:48:07;14.21;76.32
69225;DHT22;56333;51.306;17.056;2023-04-24T01:49:36;14.23;76.32
69225;DHT22;56333;51.306;17.056;2023-04-24T01:51:06;14.23;76.20
69225;DHT22;56333;51.306;17.056;2023-04-24T01:52:35;14.23;76.30
69225;DHT22;56333;51.306;17.056;2023-04-24T01:54:04;14.24;76.25
69225;DHT22;56333;51.306;17.056;2023-04-24T01:55:33;14.22;76.28
69225;DHT22;56333;51.306;17.056;2023-04-24T01:57:03;14.23;76.25
69225;DHT22;56333;51.306;17.056;2023-04-24T01:58:33;14.23;76.15
69225;DHT22;56333;51.306;17.056;2023-04-24T02:00:02;14.22;76.13
69225;DHT22;56333;51.306;17.056;2023-04-24T02:01:39;14.22;76.15
69225;DHT22;56333;51.306;17.056;2023-04-24T02:03:07;14.18;76.03
69225;DHT22;56333;51.306;17.056;2023-04-24T02:04:37;14.15;76.05
69225;DHT22;56333;51.306;17.056;2023-04-24T02:06:06;14.15;76.20
69225;DHT22;56333;51.306;17.056;2023-04-24T02:07:36;14.15;76.13
69225;DHT22;56333;51.306;17.056;2023-04-24T02:09:04;14.14;76.07
69225;DHT22;56333;51.306;17.056;2023-04-24T02:10:34;14.15;76.05
69225;DHT22;56333;51.306;17.056;2023-04-24T02:12:03;14.13;76.07
69225;DHT22;56333;51.306;17.056;2023-04-24T02:13:31;14.14;76.13
69225;DHT22;56333;51.306;17.056;2023-04-24T02:15:01;14.13;76.07
69225;DHT22;56333;51.306;17.056;2023-04-24T02:16:31;14.11;76.10
69225;DHT22;56333;51.306;17.056;2023-04-24T02:18:01;14.11;76.10
69225;DHT22;56333;51.306;17.056;2023-04-24T02:19:31;14.11;76.07
69225;DHT22;56333;51.306;17.056;2023-04-24T02:21:00;14.10;76.07
69225;DHT22;56333;51.306;17.056;2023-04-24T02:22:29;14.09;76.05
69225;DHT22;56333;51.306;17.056;2023-04-24T02:23:59;14.09;76.07
69225;DHT22;56333;51.306;17.056;2023-04-24T02:25:28;14.05;76.07
69225;DHT22;56333;51.306;17.056;2023-04-24T02:26:57;14.07;76.07
69225;DHT22;56333;51.306;17.056;2023-04-24T02:28:27;14.05;76.10
69225;DHT22;56333;51.306;17.056;2023-04-24T02:29:55;14.02;76.07
69225;DHT22;56333;51.306;17.056;2023-04-24T02:31:25;14.02;76.05
69225;DHT22;56333;51.306;17.056;2023-04-24T02:32:54;14.01;76.07
69225;DHT22;56333;51.306;17.056;2023-04-24T02:34:23;14.00;76.18
69225;DHT22;56333;51.306;17.056;2023-04-24T02:35:52;13.95;76.10
69225;DHT22;56333;51.306;17.056;2023-04-24T02:37:21;13.95;76.07
69225;DHT22;56333;51.306;17.056;2023-04-24T02:38:50;13.91;76.03
69225;DHT22;56333;51.306;17.056;2023-04-24T02:40:20;13.90;76.10
69225;DHT22;56333;51.306;17.056;2023-04-24T02:41:49;13.89;76.13
69225;DHT22;56333;51.306;17.056;2023-04-24T02:43:18;13.89;76.10
69225;DHT22;56333;51.306;17.056;2023-04-24T02:44:48;13.87;76.13
69225;DHT22;56333;51.306;17.056;2023-04-24T02:46:16;13.85;76.15
69225;DHT22;56333;51.306;17.056;2023-04-24T02:47:46;13.85;76.10
69225;DHT22;56333;51.306;17.056;2023-04-24T02:49:15;13.82;76.10
69225;DHT22;56333;51.306;17.056;2023-04-24T02:50:45;13.81;76.22
69225;DHT22;56333;51.306;17.056;2023-04-24T02:52:15;13.81;76.28
69225;DHT22;56333;51.306;17.056;2023-04-24T02:53:44;13.81;76.35
69225;DHT22;56333;51.306;17.056;2023-04-24T02:55:13;13.83;76.35
69225;DHT22;56333;51.306;17.056;2023-04-24T02:56:42;13.80;76.35
69225;DHT22;56333;51.306;17.056;2023-04-24T02:58:11;13.80;76.40
69225;DHT22;56333;51.306;17.056;2023-04-24T02:59:42;13.81;76.32
69225;DHT22;56333;51.306;17.056;2023-04-24T03:01:10;13.81;76.30
69225;DHT22;56333;51.306;17.056;2023-04-24T03:02:40;13.81;76.30
69225;DHT22;56333;51.306;17.056;2023-04-24T03:04:09;13.80;76.20
69225;DHT22;56333;51.306;17.056;2023-04-24T03:05:39;13.81;76.20
69225;DHT22;56333;51.306;17.056;2023-04-24T03:07:08;13.81;76.18
69225;DHT22;56333;51.306;17.056;2023-04-24T03:08:38;13.81;76.18
69225;DHT22;56333;51.306;17.056;2023-04-24T03:10:10;13.83;76.18
69225;DHT22;56333;51.306;17.056;2023-04-24T03:11:40;13.85;76.10
69225;DHT22;56333;51.306;17.056;2023-04-24T03:13:09;13.86;75.97
69225;DHT22;56333;51.306;17.056;2023-04-24T03:14:37;13.88;75.93
69225;DHT22;56333;51.306;17.056;2023-04-24T03:16:07;13.87;75.82
69225;DHT22;56333;51.306;17.056;2023-04-24T03:17:36;13.86;75.82
69225;DHT22;56333;51.306;17.056;2023-04-24T03:19:05;13.88;75.78
69225;DHT22;56333;51.306;17.056;2023-04-24T03:20:40;13.89;75.70
69225;DHT22;56333;51.306;17.056;2023-04-24T03:22:09;13.91;75.60
69225;DHT22;56333;51.306;17.056;2023-04-24T03:23:38;13.92;75.55
69225;DHT22;56333;51.306;17.056;2023-04-24T03:25:09;13.91;75.55
69225;DHT22;56333;51.306;17.056;2023-04-24T03:26:38;13.92;75.53
69225;DHT22;56333;51.306;17.056;2023-04-24T03:28:53;13.90;75.43
69225;DHT22;56333;51.306;17.056;2023-04-24T03:30:22;13.91;75.38
69225;DHT22;56333;51.306;17.056;2023-04-24T03:31:55;13.91;75.22
69225;DHT22;56333;51.306;17.056;2023-04-24T03:33:25;13.91;75.15
69225;DHT22;56333;51.306;17.056;2023-04-24T03:34:58;13.92;75.20
69225;DHT22;56333;51.306;17.056;2023-04-24T03:36:27;13.92;75.07
69225;DHT22;56333;51.306;17.056;2023-04-24T03:37:57;13.90;75.00
69225;DHT22;56333;51.306;17.056;2023-04-24T03:39:40;13.90;74.97
69225;DHT22;56333;51.306;17.056;2023-04-24T03:41:09;13.90;75.03
69225;DHT22;56333;51.306;17.056;2023-04-24T03:42:43;13.90;75.00
69225;DHT22;56333;51.306;17.056;2023-04-24T03:44:14;13.90;75.03
69225;DHT22;56333;51.306;17.056;2023-04-24T03:45:44;13.88;75.07
69225;DHT22;56333;51.306;17.056;2023-04-24T03:47:13;13.88;75.13
69225;DHT22;56333;51.306;17.056;2023-04-24T03:48:44;13.90;75.13
69225;DHT22;56333;51.306;17.056;2023-04-24T03:50:14;13.89;75.20
69225;DHT22;56333;51.306;17.056;2023-04-24T03:51:43;13.89;75.15
69225;DHT22;56333;51.306;17.056;2023-04-24T03:53:19;13.86;75.20
69225;DHT22;56333;51.306;17.056;2023-04-24T03:54:49;13.85;75.18
69225;DHT22;56333;51.306;17.056;2023-04-24T03:56:18;13.83;75.20
69225;DHT22;56333;51.306;17.056;2023-04-24T03:57:47;13.79;75.22
69225;DHT22;56333;51.306;17.056;2023-04-24T03:59:19;13.81;75.20
69225;DHT22;56333;51.306;17.056;2023-04-24T04:00:59;13.78;75.28
69225;DHT22;56333;51.306;17.056;2023-04-24T04:02:38;13.78;75.28
69225;DHT22;56333;51.306;17.056;2023-04-24T04:04:07;13.79;75.28
69225;DHT22;56333;51.306;17.056;2023-04-24T04:05:35;13.78;75.25
69225;DHT22;56333;51.306;17.056;2023-04-24T04:07:05;13.80;75.30
69225;DHT22;56333;51.306;17.056;2023-04-24T04:08:35;13.81;75.22
69225;DHT22;56333;51.306;17.056;2023-04-24T04:10:05;13.82;75.20
69225;DHT22;56333;51.306;17.056;2023-04-24T04:11:35;13.85;75.10
69225;DHT22;56333;51.306;17.056;2023-04-24T04:13:04;13.86;75.00
69225;DHT22;56333;51.306;17.056;2023-04-24T04:14:33;13.85;74.82
69225;DHT22;56333;51.306;17.056;2023-04-24T04:16:02;13.86;74.80
69225;DHT22;56333;51.306;17.056;2023-04-24T04:17:31;13.87;74.80
69225;DHT22;56333;51.306;17.056;2023-04-24T04:19:03;13.90;74.72
69225;DHT22;56333;51.306;17.056;2023-04-24T04:20:32;13.88;74.70
69225;DHT22;56333;51.306;17.056;2023-04-24T04:22:01;13.90;74.68
69225;DHT22;56333;51.306;17.056;2023-04-24T04:23:40;13.90;74.70
69225;DHT22;56333;51.306;17.056;2023-04-24T04:25:16;13.90;74.70
69225;DHT22;56333;51.306;17.056;2023-04-24T04:26:45;13.91;74.78
69225;DHT22;56333;51.306;17.056;2023-04-24T04:28:28;13.93;74.72
69225;DHT22;56333;51.306;17.056;2023-04-24T04:29:57;13.94;74.70
69225;DHT22;56333;51.306;17.056;2023-04-24T04:31:30;14.01;74.63
69225;DHT22;56333;51.306;17.056;2023-04-24T04:33:03;14.14;74.50
69225;DHT22;56333;51.306;17.056;2023-04-24T04:34:32;14.17;74.40
69225;DHT22;56333;51.306;17.056;2023-04-24T04:36:02;14.20;74.25
69225;DHT22;56333;51.306;17.056;2023-04-24T04:37:33;14.20;73.88
69225;DHT22;56333;51.306;17.056;2023-04-24T04:39:16;14.19;73.80
69225;DHT22;56333;51.306;17.056;2023-04-24T04:40:55;14.20;73.50
69225;DHT22;56333;51.306;17.056;2023-04-24T04:42:25;14.23;73.40
69225;DHT22;56333;51.306;17.056;2023-04-24T04:43:55;14.23;73.35
69225;DHT22;56333;51.306;17.056;2023-04-24T04:45:25;14.26;73.30
69225;DHT22;56333;51.306;17.056;2023-04-24T04:47:13;14.31;73.22
69225;DHT22;56333;51.306;17.056;2023-04-24T04:48:43;14.34;73.18
69225;DHT22;56333;51.306;17.056;2023-04-24T04:50:12;14.39;73.13
69225;DHT22;56333;51.306;17.056;2023-04-24T04:51:44;14.52;73.03
69225;DHT22;56333;51.306;17.056;2023-04-24T04:53:13;14.93;72.80
69225;DHT22;56333;51.306;17.056;2023-04-24T04:54:41;15.39;72.07
69225;DHT22;56333;51.306;17.056;2023-04-24T04:56:10;15.48;71.40
69225;DHT22;56333;51.306;17.056;2023-04-24T04:57:43;15.85;70.97
69225;DHT22;56333;51.306;17.056;2023-04-24T04:59:15;16.38;69.97
69225;DHT22;56333;51.306;17.056;2023-04-24T05:00:48;16.92;69.03
69225;DHT22;56333;51.306;17.056;2023-04-24T05:02:34;17.39;67.90
69225;DHT22;56333;51.306;17.056;2023-04-24T05:04:04;17.59;67.43
69225;DHT22;56333;51.306;17.056;2023-04-24T05:05:39;17.56;66.57
69225;DHT22;56333;51.306;17.056;2023-04-24T05:07:19;17.45;66.68
69225;DHT22;56333;51.306;17.056;2023-04-24T05:08:53;17.45;66.20
69225;DHT22;56333;51.306;17.056;2023-04-24T05:11:09;17.35;65.95
69225;DHT22;56333;51.306;17.056;2023-04-24T05:12:43;17.73;65.65
69225;DHT22;56333;51.306;17.056;2023-04-24T05:14:14;17.95;64.82
69225;DHT22;56333;51.306;17.056;2023-04-24T05:15:45;17.81;64.53
69225;DHT22;56333;51.306;17.056;2023-04-24T05:17:14;17.65;64.65
69225;DHT22;56333;51.306;17.056;2023-04-24T05:18:43;17.55;64.55
69225;DHT22;56333;51.306;17.056;2023-04-24T05:20:15;17.54;64.63
69225;DHT22;56333;51.306;17.056;2023-04-24T05:21:44;17.56;64.38
69225;DHT22;56333;51.306;17.056;2023-04-24T05:23:14;17.47;64.15
69225;DHT22;56333;51.306;17.056;2023-04-24T05:24:47;17.35;64.18
69225;DHT22;56333;51.306;17.056;2023-04-24T05:27:06;17.10;64.75
69225;DHT22;56333;51.306;17.056;2023-04-24T05:28:42;16.98;64.65
69225;DHT22;56333;51.306;17.056;2023-04-24T05:30:17;16.84;64.85
69225;DHT22;56333;51.306;17.056;2023-04-24T05:31:47;16.74;64.97
69225;DHT22;56333;51.306;17.056;2023-04-24T05:33:19;16.65;65.13
69225;DHT22;56333;51.306;17.056;2023-04-24T05:34:54;16.54;65.25
69225;DHT22;56333;51.306;17.056;2023-04-24T05:38:15;16.43;65.80
69225;DHT22;56333;51.306;17.056;2023-04-24T05:39:59;16.41;65.85
69225;DHT22;56333;51.306;17.056;2023-04-24T05:41:45;16.41;65.78
69225;DHT22;56333;51.306;17.056;2023-04-24T05:43:16;16.39;65.88
69225;DHT22;56333;51.306;17.056;2023-04-24T05:44:48;16.36;65.95
69225;DHT22;56333;51.306;17.056;2023-04-24T05:46:20;16.36;66.20
69225;DHT22;56333;51.306;17.056;2023-04-24T05:47:55;16.38;66.32
69225;DHT22;56333;51.306;17.056;2023-04-24T05:49:29;16.39;66.40
69225;DHT22;56333;51.306;17.056;2023-04-24T05:51:04;16.39;66.07
69225;DHT22;56333;51.306;17.056;2023-04-24T05:52:34;16.37;66.07
69225;DHT22;56333;51.306;17.056;2023-04-24T05:54:09;16.35;66.03
69225;DHT22;56333;51.306;17.056;2023-04-24T05:55:42;16.32;66.03
69225;DHT22;56333;51.306;17.056;2023-04-24T05:57:11;16.29;66.03
69225;DHT22;56333;51.306;17.056;2023-04-24T05:58:50;16.21;66.20
69225;DHT22;56333;51.306;17.056;2023-04-24T06:00:20;16.19;66.18
69225;DHT22;56333;51.306;17.056;2023-04-24T06:01:52;16.16;66.40
69225;DHT22;56333;51.306;17.056;2023-04-24T06:03:22;16.13;66.57
69225;DHT22;56333;51.306;17.056;2023-04-24T06:04:51;16.12;66.90
69225;DHT22;56333;51.306;17.056;2023-04-24T06:06:22;16.12;67.00
69225;DHT22;56333;51.306;17.056;2023-04-24T06:07:53;16.11;67.00
69225;DHT22;56333;51.306;17.056;2023-04-24T06:09:24;16.13;67.07
69225;DHT22;56333;51.306;17.056;2023-04-24T06:10:56;16.16;67.13
69225;DHT22;56333;51.306;17.056;2023-04-24T06:12:26;16.17;67.05
69225;DHT22;56333;51.306;17.056;2023-04-24T06:13:59;16.19;66.93
69225;DHT22;56333;51.306;17.056;2023-04-24T06:15:35;16.21;67.10
69225;DHT22;56333;51.306;17.056;2023-04-24T06:17:08;16.24;67.03
69225;DHT22;56333;51.306;17.056;2023-04-24T06:18:37;16.26;67.00
69225;DHT22;56333;51.306;17.056;2023-04-24T06:20:08;16.25;66.95
69225;DHT22;56333;51.306;17.056;2023-04-24T06:21:37;16.26;66.85
69225;DHT22;56333;51.306;17.056;2023-04-24T06:23:06;16.27;66.95
69225;DHT22;56333;51.306;17.056;2023-04-24T06:24:35;16.30;66.85
69225;DHT22;56333;51.306;17.056;2023-04-24T06:26:04;16.29;66.88
69225;DHT22;56333;51.306;17.056;2023-04-24T06:27:33;16.31;66.85
69225;DHT22;56333;51.306;17.056;2023-04-24T06:29:03;16.34;66.93
69225;DHT22;56333;51.306;17.056;2023-04-24T06:30:39;16.37;67.00
69225;DHT22;56333;51.306;17.056;2023-04-24T06:32:24;16.45;67.15
69225;DHT22;56333;51.306;17.056;2023-04-24T06:33:57;16.55;67.18
69225;DHT22;56333;51.306;17.056;2023-04-24T06:35:26;16.63;67.13
69225;DHT22;56333;51.306;17.056;2023-04-24T06:36:55;16.72;67.05
69225;DHT22;56333;51.306;17.056;2023-04-24T06:38:24;16.82;66.97
69225;DHT22;56333;51.306;17.056;2023-04-24T06:39:54;16.89;66.82
69225;DHT22;56333;51.306;17.056;2023-04-24T06:41:23;16.98;66.60
69225;DHT22;56333;51.306;17.056;2023-04-24T06:42:53;17.06;66.30
69225;DHT22;56333;51.306;17.056;2023-04-24T06:44:24;17.11;66.15
69225;DHT22;56333;51.306;17.056;2023-04-24T06:45:54;17.16;65.82
69225;DHT22;56333;51.306;17.056;2023-04-24T06:47:24;17.20;65.30
69225;DHT22;56333;51.306;17.056;2023-04-24T06:48:53;17.25;65.30
69225;DHT22;56333;51.306;17.056;2023-04-24T06:50:23;17.32;65.05
69225;DHT22;56333;51.306;17.056;2023-04-24T06:51:52;17.37;64.95
69225;DHT22;56333;51.306;17.056;2023-04-24T06:53:22;17.42;64.55
69225;DHT22;56333;51.306;17.056;2023-04-24T06:54:51;17.46;64.40
69225;DHT22;56333;51.306;17.056;2023-04-24T06:56:27;17.50;64.18
69225;DHT22;56333;51.306;17.056;2023-04-24T06:57:58;17.53;64.13
69225;DHT22;56333;51.306;17.056;2023-04-24T06:59:27;17.56;63.70
69225;DHT22;56333;51.306;17.056;2023-04-24T07:00:56;17.59;63.50
69225;DHT22;56333;51.306;17.056;2023-04-24T07:02:25;17.62;63.53
69225;DHT22;56333;51.306;17.056;2023-04-24T07:03:55;17.61;63.47
69225;DHT22;56333;51.306;17.056;2023-04-24T07:05:25;17.58;63.45
69225;DHT22;56333;51.306;17.056;2023-04-24T07:06:55;17.58;63.38
69225;DHT22;56333;51.306;17.056;2023-04-24T07:08:24;17.57;63.35
69225;DHT22;56333;51.306;17.056;2023-04-24T07:09:55;17.57;63.30
69225;DHT22;56333;51.306;17.056;2023-04-24T07:11:24;17.57;63.22
69225;DHT22;56333;51.306;17.056;2023-04-24T07:12:53;17.55;63.15
69225;DHT22;56333;51.306;17.056;2023-04-24T07:14:22;17.55;63.00
69225;DHT22;56333;51.306;17.056;2023-04-24T07:15:51;17.52;63.15
69225;DHT22;56333;51.306;17.056;2023-04-24T07:17:20;17.52;63.08
69225;DHT22;56333;51.306;17.056;2023-04-24T07:18:49;17.53;63.03
69225;DHT22;56333;51.306;17.056;2023-04-24T07:20:19;17.55;63.05
69225;DHT22;56333;51.306;17.056;2023-04-24T07:21:48;17.54;63.05
69225;DHT22;56333;51.306;17.056;2023-04-24T07:23:19;17.53;63.25
69225;DHT22;56333;51.306;17.056;2023-04-24T07:24:48;17.56;63.25
69225;DHT22;56333;51.306;17.056;2023-04-24T07:26:17;17.57;63.28
69225;DHT22;56333;51.306;17.056;2023-04-24T07:27:46;17.60;63.30
69225;DHT22;56333;51.306;17.056;2023-04-24T07:29:15;17.66;63.17
69225;DHT22;56333;51.306;17.056;2023-04-24T07:30:45;17.70;63.17
69225;DHT22;56333;51.306;17.056;2023-04-24T07:32:14;17.73;63.00
69225;DHT22;56333;51.306;17.056;2023-04-24T07:33:43;17.77;62.78
69225;DHT22;56333;51.306;17.056;2023-04-24T07:35:12;17.83;62.67
69225;DHT22;56333;51.306;17.056;2023-04-24T07:36:41;17.84;62.60
69225;DHT22;56333;51.306;17.056;2023-04-24T07:38:12;17.88;62.35
69225;DHT22;56333;51.306;17.056;2023-04-24T07:39:41;17.93;62.30
69225;DHT22;56333;51.306;17.056;2023-04-24T07:41:10;17.96;62.13
69225;DHT22;56333;51.306;17.056;2023-04-24T07:42:40;18.03;62.13
69225;DHT22;56333;51.306;17.056;2023-04-24T07:44:09;18.07;61.88
69225;DHT22;56333;51.306;17.056;2023-04-24T07:45:38;18.15;61.95
69225;DHT22;56333;51.306;17.056;2023-04-24T07:47:07;18.21;62.03
69225;DHT22;56333;51.306;17.056;2023-04-24T07:48:37;18.28;61.97
69225;DHT22;56333;51.306;17.056;2023-04-24T07:50:07;18.34;61.80
69225;DHT22;56333;51.306;17.056;2023-04-24T07:51:37;18.41;61.83
69225;DHT22;56333;51.306;17.056;2023-04-24T07:53:06;18.47;61.58
69225;DHT22;56333;51.306;17.056;2023-04-24T07:54:35;18.51;61.50
69225;DHT22;56333;51.306;17.056;2023-04-24T07:56:04;18.52;61.40
69225;DHT22;56333;51.306;17.056;2023-04-24T07:57:33;18.54;61.38
69225;DHT22;56333;51.306;17.056;2023-04-24T07:59:02;18.57;61.35
69225;DHT22;56333;51.306;17.056;2023-04-24T08:00:32;18.58;61.22
69225;DHT22;56333;51.306;17.056;2023-04-24T08:02:01;18.65;61.30
69225;DHT22;56333;51.306;17.056;2023-04-24T08:03:30;18.70;61.17
69225;DHT22;56333;51.306;17.056;2023-04-24T08:04:58;18.75;61.00
69225;DHT22;56333;51.306;17.056;2023-04-24T08:06:28;18.78;60.90
69225;DHT22;56333;51.306;17.056;2023-04-24T08:07:58;18.80;61.08
69225;DHT22;56333;51.306;17.056;2023-04-24T08:09:27;18.83;61.10
69225;DHT22;56333;51.306;17.056;2023-04-24T08:10:56;18.84;60.83
69225;DHT22;56333;51.306;17.056;2023-04-24T08:12:25;18.85;60.72
69225;DHT22;56333;51.306;17.056;2023-04-24T08:13:54;18.80;60.65
69225;DHT22;56333;51.306;17.056;2023-04-24T08:15:23;18.78;60.53
69225;DHT22;56333;51.306;17.056;2023-04-24T08:16:53;18.73;60.45
69225;DHT22;56333;51.306;17.056;2023-04-24T08:18:24;18.68;60.55
69225;DHT22;56333;51.306;17.056;2023-04-24T08:19:54;18.66;60.72
69225;DHT22;56333;51.306;17.056;2023-04-24T08:21:25;18.63;60.65
69225;DHT22;56333;51.306;17.056;2023-04-24T08:22:54;18.65;60.72
69225;DHT22;56333;51.306;17.056;2023-04-24T08:24:23;18.64;60.58
69225;DHT22;56333;51.306;17.056;2023-04-24T08:25:52;18.64;60.65
69225;DHT22;56333;51.306;17.056;2023-04-24T08:27:21;18.64;60.55
69225;DHT22;56333;51.306;17.056;2023-04-24T08:28:51;18.62;60.65
69225;DHT22;56333;51.306;17.056;2023-04-24T08:30:19;18.66;60.72
69225;DHT22;56333;51.306;17.056;2023-04-24T08:31:48;18.69;60.67
69225;DHT22;56333;51.306;17.056;2023-04-24T08:33:18;18.72;60.55
69225;DHT22;56333;51.306;17.056;2023-04-24T08:34:48;18.79;60.72
69225;DHT22;56333;51.306;17.056;2023-04-24T08:36:17;18.85;60.70
69225;DHT22;56333;51.306;17.056;2023-04-24T08:37:46;18.90;60.97
69225;DHT22;56333;51.306;17.056;2023-04-24T08:39:17;18.95;60.92
69225;DHT22;56333;51.306;17.056;2023-04-24T08:40:46;18.97;60.58
69225;DHT22;56333;51.306;17.056;2023-04-24T08:42:16;19.00;60.47
69225;DHT22;56333;51.306;17.056;2023-04-24T08:43:46;19.03;60.38
69225;DHT22;56333;51.306;17.056;2023-04-24T08:45:17;19.07;60.30
69225;DHT22;56333;51.306;17.056;2023-04-24T08:46:46;19.13;60.00
69225;DHT22;56333;51.306;17.056;2023-04-24T08:48:15;19.14;60.00
69225;DHT22;56333;51.306;17.056;2023-04-24T08:49:46;19.14;60.20
69225;DHT22;56333;51.306;17.056;2023-04-24T08:51:17;19.14;60.15
69225;DHT22;56333;51.306;17.056;2023-04-24T08:52:46;19.12;60.22
69225;DHT22;56333;51.306;17.056;2023-04-24T08:54:17;19.13;60.20
69225;DHT22;56333;51.306;17.056;2023-04-24T08:55:48;19.10;60.10
69225;DHT22;56333;51.306;17.056;2023-04-24T08:57:17;19.06;60.28
69225;DHT22;56333;51.306;17.056;2023-04-24T08:58:47;19.03;60.28
69225;DHT22;56333;51.306;17.056;2023-04-24T09:00:20;18.99;59.88
69225;DHT22;56333;51.306;17.056;2023-04-24T09:01:49;18.96;60.08
69225;DHT22;56333;51.306;17.056;2023-04-24T09:03:20;18.93;60.17
69225;DHT22;56333;51.306;17.056;2023-04-24T09:04:48;18.86;60.28
69225;DHT22;56333;51.306;17.056;2023-04-24T09:06:17;18.83;60.28
69225;DHT22;56333;51.306;17.056;2023-04-24T09:07:52;18.78;60.17
69225;DHT22;56333;51.306;17.056;2023-04-24T09:09:22;18.74;60.10
69225;DHT22;56333;51.306;17.056;2023-04-24T09:10:51;18.70;60.33
69225;DHT22;56333;51.306;17.056;2023-04-24T09:12:22;18.69;60.47
69225;DHT22;56333;51.306;17.056;2023-04-24T09:13:51;18.67;60.85
69225;DHT22;56333;51.306;17.056;2023-04-24T09:15:20;18.69;61.17
69225;DHT22;56333;51.306;17.056;2023-04-24T09:16:49;18.70;61.40
69225;DHT22;56333;51.306;17.056;2023-04-24T09:18:18;18.72;61.92
69225;DHT22;56333;51.306;17.056;2023-04-24T09:19:48;18.74;62.30
69225;DHT22;56333;51.306;17.056;2023-04-24T09:21:17;18.78;63.05
69225;DHT22;56333;51.306;17.056;2023-04-24T09:22:48;18.85;62.72
69225;DHT22;56333;51.306;17.056;2023-04-24T09:24:21;18.93;62.67
69225;DHT22;56333;51.306;17.056;2023-04-24T09:25:50;19.01;62.28